Station Historical Data
Daily Summary for May 26, 2011 Units:  English    Metric   Both
« Previous Day
Next Day »
Daily Weekly Monthly Yearly Custom
  High: Low: Average:
Temperature: 79.4 °F 59.9 °F 68.7 °F
Dew Point: 68.3 °F 57.0 °F 62 °F
Humidity: 96% 55% 81%
Wind Speed: 38.0mph 1.0mph 6.9mph
Wind Gust: 45.0mph - -
Wind- - SW
Pressure: 29.87 in 29.66 in -
Precipitation: 1.00 in    
Historical Graphs
 
 
Tabular Data for May 26, 2011
Time Temperature Dew Point Pressure Wind Wind Speed Wind Gust Humidity Rainfall Rate (Hourly) Conditions
00:00 79.3 °F 66.5 °F 29.67 in SE 16.0 mph 17.0 mph 65% 0.00 in
00:02 79.3 °F 67.0 °F 29.66 in SSE 12.0 mph 16.0 mph 66% 0.00 in
00:03 79.4 °F 67.1 °F 29.66 in SSE 15.0 mph 16.0 mph 66% 0.00 in
00:08 79.3 °F 67.0 °F 29.66 in South 12.0 mph 17.0 mph 66% 0.00 in
00:13 79.3 °F 67.0 °F 29.66 in SSE 12.0 mph 20.0 mph 66% 0.00 in
00:18 79.4 °F 67.1 °F 29.66 in SSE 16.0 mph 21.0 mph 66% 0.00 in
00:23 79.4 °F 67.5 °F 29.66 in West 17.0 mph 21.0 mph 67% 0.00 in
00:24 79.4 °F 67.5 °F 29.66 in West 17.0 mph 21.0 mph 67% 0.00 in
00:29 70.1 °F 57.4 °F 29.77 in West 38.0 mph 45.0 mph 64% 0.00 in
00:30 66.6 °F 61.3 °F 29.78 in SW 20.0 mph 38.0 mph 83% 0.00 in
00:32 65.0 °F 61.0 °F 29.78 in West 11.0 mph 26.0 mph 87% 0.00 in
00:34 64.3 °F 60.7 °F 29.79 in WSW 17.0 mph 26.0 mph 88% 0.00 in
01:00 62.5 °F 60.5 °F 29.76 in WSW 10.0 mph 26.0 mph 93% 3.69 in
01:30 62.3 °F 60.0 °F 29.75 in WSW 7.0 mph 16.0 mph 92% 0.23 in
02:04 62.8 °F 60.5 °F 29.76 in SW 9.0 mph 9.0 mph 92% 0.36 in
02:05 62.8 °F 60.5 °F 29.76 in South 6.0 mph 9.0 mph 92% 0.36 in
02:10 62.9 °F 60.5 °F 29.75 in SSW 5.0 mph 11.0 mph 92% 0.28 in
02:15 62.9 °F 60.5 °F 29.75 in South 7.0 mph 10.0 mph 92% 0.21 in
02:20 62.8 °F 60.5 °F 29.76 in SSE 5.0 mph 10.0 mph 92% 0.15 in
02:21 62.7 °F 60.3 °F 29.75 in SW 7.0 mph 10.0 mph 92% 0.15 in
02:25 62.7 °F 60.3 °F 29.75 in SE 6.0 mph 14.0 mph 92% 0.25 in
02:26 62.7 °F 60.3 °F 29.74 in SE 7.0 mph 14.0 mph 92% 0.25 in
02:29 62.7 °F 60.3 °F 29.75 in SE 10.0 mph 15.0 mph 92% 0.19 in
02:31 62.6 °F 60.2 °F 29.75 in South 8.0 mph 15.0 mph 92% 0.19 in
02:34 62.7 °F 60.7 °F 29.75 in SE 13.0 mph 16.0 mph 93% 0.14 in
02:36 62.6 °F 60.5 °F 29.75 in South 11.0 mph 14.0 mph 93% 0.14 in
02:41 62.7 °F 60.7 °F 29.74 in SSE 10.0 mph 19.0 mph 93% 0.13 in
02:46 62.6 °F 60.5 °F 29.71 in SE 12.0 mph 17.0 mph 93% 0.20 in
02:51 62.9 °F 60.2 °F 29.66 in ESE 17.0 mph 25.0 mph 91% 0.09 in
02:55 62.7 °F 60.3 °F 29.66 in SE 8.0 mph 20.0 mph 92% 0.06 in
02:56 62.7 °F 60.3 °F 29.67 in SE 10.0 mph 20.0 mph 92% 0.05 in
02:57 62.6 °F 60.2 °F 29.66 in SE 9.0 mph 20.0 mph 92% 0.05 in
03:01 62.5 °F 60.5 °F 29.67 in SSE 8.0 mph 13.0 mph 93% 0.04 in
03:06 62.6 °F 60.5 °F 29.67 in SE 10.0 mph 13.0 mph 93% 0.00 in
03:11 62.7 °F 60.3 °F 29.67 in ESE 13.0 mph 19.0 mph 92% 0.00 in
03:16 62.8 °F 60.5 °F 29.68 in WSW 2.0 mph 11.0 mph 92% 0.00 in
03:21 62.8 °F 60.5 °F 29.68 in SW 5.0 mph 9.0 mph 92% 0.00 in
03:27 62.6 °F 60.2 °F 29.68 in SE 6.0 mph 8.0 mph 92% 0.00 in
03:32 62.5 °F 60.2 °F 29.69 in SE 8.0 mph 10.0 mph 92% 0.00 in
03:37 62.5 °F 60.2 °F 29.69 in SE 5.0 mph 8.0 mph 92% 0.00 in
03:42 62.3 °F 60.2 °F 29.68 in SE 5.0 mph 8.0 mph 93% 0.00 in
03:47 62.3 °F 60.2 °F 29.69 in SSE 5.0 mph 8.0 mph 93% 0.00 in
03:52 62.3 °F 60.2 °F 29.70 in SE 7.0 mph 10.0 mph 93% 0.00 in
03:54 62.3 °F 60.2 °F 29.69 in SSE 7.0 mph 8.0 mph 93% 0.00 in
03:58 62.4 °F 60.3 °F 29.69 in ESE 8.0 mph 11.0 mph 93% 0.00 in
03:59 62.4 °F 60.3 °F 29.69 in SE 5.0 mph 11.0 mph 93% 0.00 in
04:03 62.4 °F 60.3 °F 29.69 in ESE 7.0 mph 9.0 mph 93% 0.00 in
04:04 62.4 °F 60.3 °F 29.69 in SE 8.0 mph 8.0 mph 93% 0.00 in
04:09 62.6 °F 60.2 °F 29.69 in SE 6.0 mph 10.0 mph 92% 0.00 in
04:14 62.8 °F 60.1 °F 29.70 in South 6.0 mph 7.0 mph 91% 0.00 in
04:19 63.0 °F 60.3 °F 29.70 in SSE 9.0 mph 9.0 mph 91% 0.00 in
04:24 63.3 °F 60.3 °F 29.71 in SSE 11.0 mph 11.0 mph 90% 0.00 in
04:29 63.3 °F 60.6 °F 29.71 in SE 6.0 mph 11.0 mph 91% 0.00 in
04:30 63.3 °F 60.6 °F 29.71 in SSE 7.0 mph 11.0 mph 91% 0.00 in
04:35 63.0 °F 60.6 °F 29.71 in SE 9.0 mph 11.0 mph 92% 0.00 in
04:36 63.0 °F 60.6 °F 29.71 in SE 9.0 mph 11.0 mph 92% 0.00 in
04:41 62.9 °F 60.8 °F 29.71 in SE 8.0 mph 10.0 mph 93% 0.00 in
04:46 62.9 °F 60.8 °F 29.72 in ESE 8.0 mph 10.0 mph 93% 0.00 in
04:51 62.9 °F 60.8 °F 29.72 in SE 6.0 mph 10.0 mph 93% 0.00 in
04:55 62.9 °F 60.8 °F 29.72 in SSE 7.0 mph 9.0 mph 93% 0.00 in
04:56 62.9 °F 60.8 °F 29.72 in SSE 7.0 mph 9.0 mph 93% 0.00 in
05:01 63.0 °F 61.0 °F 29.71 in SE 6.0 mph 11.0 mph 93% 0.00 in
05:06 62.9 °F 60.8 °F 29.71 in SE 5.0 mph 12.0 mph 93% 0.00 in
05:11 63.0 °F 61.0 °F 29.71 in ESE 6.0 mph 10.0 mph 93% 0.00 in
05:16 62.9 °F 60.8 °F 29.71 in SE 6.0 mph 11.0 mph 93% 0.00 in
05:21 63.0 °F 61.2 °F 29.73 in SSE 8.0 mph 13.0 mph 94% 0.00 in
05:26 63.1 °F 61.0 °F 29.73 in South 2.0 mph 11.0 mph 93% 0.00 in
05:29 63.2 °F 61.5 °F 29.73 in SSW 5.0 mph 8.0 mph 94% 0.00 in
05:31 63.2 °F 61.5 °F 29.73 in SE 9.0 mph 10.0 mph 94% 0.00 in
05:32 63.2 °F 61.5 °F 29.73 in WNW 3.0 mph 10.0 mph 94% 0.00 in
05:36 63.2 °F 61.5 °F 29.75 in SSW 6.0 mph 11.0 mph 94% 0.00 in
05:37 63.2 °F 61.5 °F 29.75 in SW 4.0 mph 11.0 mph 94% 0.00 in
05:41 63.2 °F 61.5 °F 29.77 in SW 8.0 mph 18.0 mph 94% 3.08 in
05:46 62.9 °F 60.2 °F 29.68 in SSW 20.0 mph 38.0 mph 91% 0.49 in
05:47 63.0 °F 60.3 °F 29.68 in South 12.0 mph 38.0 mph 91% 0.49 in
05:52 62.9 °F 61.2 °F 29.70 in SE 8.0 mph 16.0 mph 94% 0.10 in
05:53 62.8 °F 61.0 °F 29.72 in SSW 4.0 mph 11.0 mph 94% 0.08 in
05:57 62.8 °F 61.3 °F 29.71 in SE 4.0 mph 11.0 mph 95% 0.05 in
05:59 62.8 °F 61.3 °F 29.71 in ESE 9.0 mph 10.0 mph 95% 0.05 in
06:04 63.2 °F 61.8 °F 29.72 in SE 10.0 mph 14.0 mph 95% 0.00 in
06:09 63.5 °F 61.8 °F 29.73 in SE 11.0 mph 12.0 mph 94% 0.00 in
06:15 63.6 °F 61.8 °F 29.73 in SE 19.0 mph 19.0 mph 94% 0.00 in
06:19 63.5 °F 61.8 °F 29.72 in SE 9.0 mph 16.0 mph 94% 0.00 in
06:24 63.3 °F 61.5 °F 29.73 in SSE 8.0 mph 11.0 mph 94% 0.00 in
06:25 63.3 °F 61.5 °F 29.73 in SSE 8.0 mph 11.0 mph 94% 0.00 in
06:30 63.3 °F 61.5 °F 29.72 in SE 10.0 mph 16.0 mph 94% 0.00 in
06:35 63.2 °F 61.5 °F 29.73 in SSW 7.0 mph 11.0 mph 94% 0.00 in
06:36 63.2 °F 61.5 °F 29.73 in SSE 8.0 mph 11.0 mph 94% 0.00 in
06:41 63.2 °F 61.5 °F 29.72 in South 4.0 mph 9.0 mph 94% 0.00 in
06:46 63.1 °F 61.7 °F 29.73 in SSW 5.0 mph 9.0 mph 95% 0.00 in
06:51 63.1 °F 61.7 °F 29.73 in SSW 5.0 mph 11.0 mph 95% 0.00 in
06:52 63.1 °F 61.7 °F 29.73 in South 11.0 mph 11.0 mph 95% 0.00 in
06:56 63.2 °F 61.8 °F 29.72 in SSW 8.0 mph 11.0 mph 95% 0.00 in
06:57 63.2 °F 61.8 °F 29.72 in SSE 6.0 mph 9.0 mph 95% 0.00 in
07:01 63.2 °F 61.8 °F 29.72 in SSW 6.0 mph 9.0 mph 95% 0.00 in
07:06 63.1 °F 61.3 °F 29.72 in SSW 5.0 mph 7.0 mph 94% 0.00 in
07:11 63.1 °F 61.3 °F 29.71 in SSE 2.0 mph 6.0 mph 94% 0.00 in
07:16 63.0 °F 61.2 °F 29.73 in SSE 2.0 mph 7.0 mph 94% 0.00 in
07:21 62.9 °F 61.2 °F 29.73 in SSE 4.0 mph 9.0 mph 94% 0.00 in
07:26 62.9 °F 61.2 °F 29.73 in South 4.0 mph 7.0 mph 94% 0.00 in
07:27 62.9 °F 61.2 °F 29.73 in South 7.0 mph 7.0 mph 94% 0.00 in
07:32 62.9 °F 61.2 °F 29.73 in SE 4.0 mph 7.0 mph 94% 0.00 in
07:37 62.8 °F 61.0 °F 29.74 in SW 3.0 mph 9.0 mph 94% 0.00 in
07:38 62.8 °F 61.0 °F 29.74 in SSW 4.0 mph 8.0 mph 94% 0.00 in
07:43 62.9 °F 61.2 °F 29.75 in South 4.0 mph 9.0 mph 94% 0.00 in
07:48 62.8 °F 61.3 °F 29.74 in SSE 3.0 mph 8.0 mph 95% 0.04 in
07:53 62.8 °F 61.3 °F 29.73 in SW 3.0 mph 7.0 mph 95% 0.50 in
07:54 62.9 °F 61.5 °F 29.73 in WSW 3.0 mph 6.0 mph 95% 0.50 in
07:57 62.9 °F 61.8 °F 29.73 in South 3.0 mph 9.0 mph 96% 0.14 in
07:58 62.9 °F 61.8 °F 29.73 in SSE 9.0 mph 9.0 mph 96% 0.11 in
07:59 63.0 °F 61.8 °F 29.73 in SSW 5.0 mph 9.0 mph 96% 0.08 in
08:03 63.1 °F 61.9 °F 29.73 in SSW 2.0 mph 8.0 mph 96% 0.06 in
08:08 63.3 °F 62.1 °F 29.73 in South 3.0 mph 7.0 mph 96% 0.04 in
08:13 63.4 °F 62.2 °F 29.74 in South 5.0 mph 6.0 mph 96% 0.00 in
08:18 63.7 °F 62.5 °F 29.74 in SSE 3.0 mph 6.0 mph 96% 0.00 in
08:23 63.9 °F 62.7 °F 29.74 in SW 2.0 mph 6.0 mph 96% 0.00 in
08:28 64.2 °F 63.0 °F 29.74 in SSW 5.0 mph 7.0 mph 96% 0.00 in
08:29 64.2 °F 63.0 °F 29.74 in SSW 5.0 mph 6.0 mph 96% 0.00 in
08:34 64.6 °F 63.4 °F 29.75 in South 5.0 mph 8.0 mph 96% 0.00 in
08:35 64.6 °F 63.4 °F 29.75 in SSW 6.0 mph 8.0 mph 96% 0.00 in
08:36 64.7 °F 63.5 °F 29.74 in SSW 3.0 mph 6.0 mph 96% 0.00 in
08:40 64.8 °F 63.6 °F 29.74 in SSE 4.0 mph 5.0 mph 96% 0.43 in
08:42 64.9 °F 63.7 °F 29.75 in SSW 5.0 mph 5.0 mph 96% 0.49 in
08:47 64.9 °F 63.7 °F 29.74 in SE 4.0 mph 6.0 mph 96% 1.49 in
08:52 64.9 °F 63.7 °F 29.75 in South 3.0 mph 9.0 mph 96% 1.30 in
08:53 64.9 °F 63.7 °F 29.75 in SW 5.0 mph 8.0 mph 96% 0.54 in
08:57 65.2 °F 64.0 °F 29.75 in SE 3.0 mph 10.0 mph 96% 0.12 in
08:58 65.2 °F 64.0 °F 29.75 in SE 5.0 mph 10.0 mph 96% 0.10 in
09:02 65.2 °F 64.0 °F 29.75 in SSE 3.0 mph 7.0 mph 96% 0.06 in
09:07 65.1 °F 63.9 °F 29.75 in SSE 6.0 mph 8.0 mph 96% 0.04 in
09:12 65.1 °F 63.9 °F 29.75 in SSE 3.0 mph 9.0 mph 96% 0.04 in
09:17 65.1 °F 63.9 °F 29.75 in SSW 6.0 mph 8.0 mph 96% 0.04 in
09:22 65.2 °F 64.0 °F 29.75 in SSE 5.0 mph 6.0 mph 96% 0.00 in
09:23 65.2 °F 64.0 °F 29.75 in SSE 6.0 mph 6.0 mph 96% 0.00 in
09:28 65.2 °F 64.0 °F 29.75 in SSE 3.0 mph 8.0 mph 96% 0.00 in
09:33 65.3 °F 64.1 °F 29.75 in SSE 1.0 mph 3.0 mph 96% 0.00 in
09:34 65.3 °F 64.1 °F 29.75 in SSE 1.0 mph 3.0 mph 96% 0.00 in
09:35 65.4 °F 64.2 °F 29.75 in SW 2.0 mph 3.0 mph 96% 0.00 in
09:37 65.5 °F 64.3 °F 29.75 in SSW 3.0 mph 5.0 mph 96% 0.00 in
09:42 65.8 °F 64.6 °F 29.75 in SSE 2.0 mph 5.0 mph 96% 0.00 in
09:47 66.1 °F 64.9 °F 29.75 in SW 1.0 mph 3.0 mph 96% 0.00 in
09:52 66.6 °F 65.1 °F 29.74 in SSW 2.0 mph 5.0 mph 95% 0.00 in
09:57 67.2 °F 65.7 °F 29.75 in SSW 5.0 mph 5.0 mph 95% 0.00 in
10:02 67.6 °F 65.8 °F 29.75 in SSE 4.0 mph 6.0 mph 94% 0.00 in
10:03 67.7 °F 65.9 °F 29.75 in SSE 3.0 mph 6.0 mph 94% 0.00 in
10:08 68.1 °F 66.3 °F 29.75 in SSW 2.0 mph 5.0 mph 94% 0.00 in
10:13 68.2 °F 66.4 °F 29.75 in SSW 2.0 mph 4.0 mph 94% 0.00 in
10:18 68.4 °F 66.6 °F 29.76 in SW 7.0 mph 7.0 mph 94% 0.00 in
10:23 69.0 °F 67.2 °F 29.75 in SW 3.0 mph 7.0 mph 94% 0.00 in
10:28 69.6 °F 67.2 °F 29.75 in SW 8.0 mph 9.0 mph 92% 0.00 in
10:30 69.9 °F 67.5 °F 29.75 in SSW 9.0 mph 10.0 mph 92% 0.00 in
10:34 70.4 °F 68.0 °F 29.75 in SSW 6.0 mph 12.0 mph 92% 0.00 in
10:35 70.5 °F 67.8 °F 29.75 in SW 6.0 mph 11.0 mph 91% 0.00 in
10:36 70.9 °F 68.2 °F 29.75 in SW 7.0 mph 8.0 mph 91% 0.00 in
10:40 71.1 °F 68.0 °F 29.75 in WSW 6.0 mph 10.0 mph 90% 0.00 in
10:41 71.1 °F 68.0 °F 29.74 in WSW 8.0 mph 10.0 mph 90% 0.00 in
10:45 71.1 °F 67.7 °F 29.75 in SW 6.0 mph 10.0 mph 89% 0.00 in
10:47 71.2 °F 67.8 °F 29.75 in WSW 9.0 mph 10.0 mph 89% 0.00 in
10:50 71.0 °F 66.6 °F 29.75 in SW 8.0 mph 12.0 mph 86% 0.00 in
10:52 71.2 °F 67.8 °F 29.75 in SSW 6.0 mph 11.0 mph 89% 0.00 in
10:57 71.3 °F 66.6 °F 29.75 in WSW 7.0 mph 12.0 mph 85% 0.00 in
10:58 71.3 °F 66.9 °F 29.75 in SW 7.0 mph 12.0 mph 86% 0.00 in
11:02 71.1 °F 66.0 °F 29.75 in WSW 7.0 mph 11.0 mph 84% 0.00 in
11:07 71.1 °F 67.4 °F 29.75 in SW 7.0 mph 8.0 mph 88% 0.00 in
11:12 71.6 °F 67.2 °F 29.75 in WSW 7.0 mph 9.0 mph 86% 0.00 in
11:17 72.1 °F 66.7 °F 29.75 in SW 10.0 mph 12.0 mph 83% 0.00 in
11:22 72.7 °F 68.3 °F 29.75 in WSW 7.0 mph 10.0 mph 86% 0.00 in
11:27 72.7 °F 66.5 °F 29.75 in WSW 6.0 mph 10.0 mph 81% 0.00 in
11:29 72.7 °F 66.9 °F 29.75 in West 9.0 mph 10.0 mph 82% 0.00 in
11:33 72.7 °F 67.2 °F 29.75 in SSW 5.0 mph 9.0 mph 83% 0.00 in
11:36 73.1 °F 66.9 °F 29.75 in WSW 10.0 mph 11.0 mph 81% 0.00 in
11:41 72.9 °F 64.5 °F 29.75 in SSW 9.0 mph 15.0 mph 75% 0.00 in
11:46 73.2 °F 65.9 °F 29.75 in SW 8.0 mph 12.0 mph 78% 0.00 in
11:52 73.7 °F 66.1 °F 29.75 in South 5.0 mph 8.0 mph 77% 0.00 in
11:53 73.8 °F 64.6 °F 29.75 in WSW 11.0 mph 13.0 mph 73% 0.00 in
11:55 73.7 °F 65.3 °F 29.75 in SW 6.0 mph 13.0 mph 75% 0.00 in
11:58 73.7 °F 64.9 °F 29.75 in WSW 6.0 mph 11.0 mph 74% 0.00 in
12:03 74.0 °F 63.6 °F 29.75 in SW 8.0 mph 10.0 mph 70% 0.00 in
12:08 74.6 °F 66.5 °F 29.75 in WSW 6.0 mph 10.0 mph 76% 0.00 in
12:13 74.8 °F 64.4 °F 29.75 in WSW 13.0 mph 14.0 mph 70% 0.00 in
12:18 74.2 °F 63.4 °F 29.76 in SSW 9.0 mph 14.0 mph 69% 0.00 in
12:23 74.0 °F 64.4 °F 29.76 in WSW 7.0 mph 12.0 mph 72% 0.00 in
12:24 74.0 °F 64.0 °F 29.76 in WSW 7.0 mph 12.0 mph 71% 0.00 in
12:29 74.0 °F 63.6 °F 29.76 in SW 7.0 mph 15.0 mph 70% 0.00 in
12:30 74.0 °F 62.8 °F 29.76 in West 10.0 mph 15.0 mph 68% 0.00 in
12:34 74.0 °F 61.9 °F 29.76 in WSW 8.0 mph 15.0 mph 66% 0.00 in
12:35 74.0 °F 63.2 °F 29.76 in SW 9.0 mph 15.0 mph 69% 0.00 in
12:36 74.0 °F 62.8 °F 29.76 in West 9.0 mph 15.0 mph 68% 0.00 in
12:41 74.2 °F 62.1 °F 29.76 in SW 10.0 mph 17.0 mph 66% 0.00 in
12:42 74.2 °F 62.1 °F 29.76 in WSW 9.0 mph 17.0 mph 66% 0.00 in
12:47 74.1 °F 63.7 °F 29.76 in West 12.0 mph 12.0 mph 70% 0.00 in
12:52 74.2 °F 65.0 °F 29.75 in South 5.0 mph 11.0 mph 73% 0.00 in
12:53 74.2 °F 63.4 °F 29.76 in SSW 7.0 mph 11.0 mph 69% 0.00 in
12:58 74.5 °F 64.1 °F 29.76 in West 3.0 mph 15.0 mph 70% 0.00 in
13:03 75.1 °F 63.8 °F 29.76 in WSW 8.0 mph 13.0 mph 68% 0.00 in
13:08 75.2 °F 65.2 °F 29.76 in WSW 14.0 mph 15.0 mph 71% 0.00 in
13:13 75.0 °F 63.7 °F 29.76 in WSW 13.0 mph 15.0 mph 68% 0.00 in
13:18 75.2 °F 63.9 °F 29.76 in WSW 11.0 mph 15.0 mph 68% 0.00 in
13:24 75.4 °F 64.5 °F 29.76 in WSW 10.0 mph 16.0 mph 69% 0.00 in
13:29 76.0 °F 63.0 °F 29.76 in WSW 11.0 mph 17.0 mph 64% 0.00 in
13:35 75.8 °F 65.3 °F 29.76 in South 6.0 mph 18.0 mph 70% 0.00 in
13:36 75.9 °F 65.4 °F 29.76 in SSW 11.0 mph 16.0 mph 70% 0.00 in
13:40 76.1 °F 63.5 °F 29.75 in West 13.0 mph 16.0 mph 65% 0.00 in
13:45 76.2 °F 63.1 °F 29.76 in SW 8.0 mph 16.0 mph 64% 0.00 in
13:50 76.2 °F 63.1 °F 29.76 in SSE 11.0 mph 11.0 mph 64% 0.00 in
13:51 76.3 °F 63.2 °F 29.75 in South 10.0 mph 17.0 mph 64% 0.00 in
13:55 76.6 °F 64.4 °F 29.75 in SSW 12.0 mph 17.0 mph 66% 0.00 in
13:56 76.6 °F 64.0 °F 29.76 in SW 19.0 mph 19.0 mph 65% 0.00 in
13:58 76.2 °F 62.2 °F 29.76 in South 10.0 mph 19.0 mph 62% 0.00 in
14:01 76.3 °F 63.7 °F 29.75 in SSW 12.0 mph 12.0 mph 65% 0.00 in
14:06 76.5 °F 63.0 °F 29.75 in SW 5.0 mph 16.0 mph 63% 0.00 in
14:11 76.7 °F 63.2 °F 29.75 in SSW 10.0 mph 14.0 mph 63% 0.00 in
14:16 77.0 °F 63.0 °F 29.74 in WSW 7.0 mph 12.0 mph 62% 0.00 in
14:17 77.0 °F 63.5 °F 29.74 in WSW 11.0 mph 13.0 mph 63% 0.00 in
14:22 76.6 °F 62.6 °F 29.74 in SSW 7.0 mph 15.0 mph 62% 0.00 in
14:23 76.6 °F 62.6 °F 29.75 in WSW 10.0 mph 18.0 mph 62% 0.00 in
14:27 77.0 °F 63.0 °F 29.74 in SW 9.0 mph 16.0 mph 62% 0.00 in
14:28 76.9 °F 62.4 °F 29.74 in West 7.0 mph 14.0 mph 61% 0.00 in
14:29 76.9 °F 62.4 °F 29.74 in SW 14.0 mph 14.0 mph 61% 0.00 in
14:37 76.8 °F 63.3 °F 29.73 in SW 9.0 mph 16.0 mph 63% 0.00 in
14:42 77.0 °F 62.1 °F 29.74 in WSW 9.0 mph 15.0 mph 60% 0.00 in
14:47 77.0 °F 63.5 °F 29.74 in SW 7.0 mph 12.0 mph 63% 0.00 in
14:52 77.2 °F 62.7 °F 29.74 in SW 6.0 mph 16.0 mph 61% 0.00 in
14:53 77.3 °F 62.8 °F 29.74 in WSW 7.0 mph 15.0 mph 61% 0.00 in
14:54 77.5 °F 64.8 °F 29.74 in SW 10.0 mph 15.0 mph 65% 0.00 in
14:58 77.7 °F 62.2 °F 29.73 in SW 6.0 mph 12.0 mph 59% 0.00 in
14:59 77.7 °F 63.7 °F 29.74 in WSW 13.0 mph 13.0 mph 62% 0.00 in
15:04 77.3 °F 60.9 °F 29.74 in SSW 18.0 mph 18.0 mph 57% 0.00 in
15:05 77.3 °F 60.9 °F 29.74 in SSW 18.0 mph 18.0 mph 57% 0.00 in
15:10 76.3 °F 60.9 °F 29.73 in SW 11.0 mph 17.0 mph 59% 0.00 in
15:15 76.6 °F 63.1 °F 29.74 in SW 7.0 mph 18.0 mph 63% 0.00 in
15:20 77.4 °F 62.0 °F 29.74 in SSW 10.0 mph 15.0 mph 59% 0.00 in
15:25 77.5 °F 62.5 °F 29.74 in SSW 11.0 mph 16.0 mph 60% 0.00 in
15:26 77.6 °F 62.2 °F 29.74 in SW 10.0 mph 16.0 mph 59% 0.00 in
15:28 77.6 °F 61.7 °F 29.73 in SW 10.0 mph 13.0 mph 58% 0.00 in
15:30 77.3 °F 60.9 °F 29.73 in WSW 11.0 mph 16.0 mph 57% 0.00 in
15:31 77.1 °F 60.7 °F 29.74 in West 8.0 mph 16.0 mph 57% 0.00 in
15:33 77.0 °F 60.1 °F 29.74 in West 7.0 mph 18.0 mph 56% 0.00 in
15:36 76.8 °F 60.9 °F 29.74 in SW 12.0 mph 17.0 mph 58% 0.00 in
15:38 76.6 °F 61.7 °F 29.73 in WSW 11.0 mph 14.0 mph 60% 0.00 in
15:43 76.8 °F 61.4 °F 29.73 in SW 11.0 mph 12.0 mph 59% 0.00 in
15:44 76.7 °F 61.3 °F 29.73 in SW 9.0 mph 12.0 mph 59% 0.00 in
15:49 76.7 °F 61.3 °F 29.73 in SW 10.0 mph 15.0 mph 59% 0.00 in
15:54 77.3 °F 61.9 °F 29.73 in SSW 7.0 mph 12.0 mph 59% 0.00 in
15:55 77.3 °F 60.9 °F 29.73 in SSW 6.0 mph 11.0 mph 57% 0.00 in
15:58 76.8 °F 60.4 °F 29.73 in WSW 10.0 mph 16.0 mph 57% 0.00 in
16:00 76.6 °F 60.2 °F 29.73 in SW 6.0 mph 16.0 mph 57% 0.00 in
16:05 76.2 °F 61.3 °F 29.73 in WSW 8.0 mph 12.0 mph 60% 0.00 in
16:10 76.4 °F 61.0 °F 29.73 in WNW 10.0 mph 14.0 mph 59% 0.00 in
16:15 76.9 °F 61.0 °F 29.73 in WNW 13.0 mph 18.0 mph 58% 0.00 in
16:20 77.2 °F 60.8 °F 29.73 in WSW 11.0 mph 15.0 mph 57% 0.00 in
16:25 77.0 °F 60.1 °F 29.73 in West 10.0 mph 19.0 mph 56% 0.00 in
16:26 76.9 °F 60.0 °F 29.73 in WSW 10.0 mph 19.0 mph 56% 0.00 in
16:31 76.7 °F 60.8 °F 29.74 in SW 15.0 mph 16.0 mph 58% 0.00 in
16:34 76.4 °F 61.0 °F 29.73 in SW 7.0 mph 17.0 mph 59% 0.00 in
16:36 76.4 °F 60.5 °F 29.73 in SW 13.0 mph 18.0 mph 58% 0.00 in
16:39 76.5 °F 61.1 °F 29.73 in WSW 13.0 mph 18.0 mph 59% 0.00 in
16:44 76.6 °F 62.2 °F 29.73 in SW 8.0 mph 12.0 mph 61% 0.00 in
16:49 76.8 °F 60.4 °F 29.73 in SW 9.0 mph 13.0 mph 57% 0.00 in
16:54 77.1 °F 60.7 °F 29.73 in WSW 13.0 mph 15.0 mph 57% 0.00 in
16:55 77.0 °F 59.6 °F 29.73 in West 11.0 mph 15.0 mph 55% 0.00 in
16:59 76.9 °F 60.5 °F 29.73 in WSW 14.0 mph 19.0 mph 57% 0.00 in
17:04 76.6 °F 60.7 °F 29.73 in NW 8.0 mph 12.0 mph 58% 0.00 in
17:09 76.8 °F 61.4 °F 29.73 in West 7.0 mph 12.0 mph 59% 0.00 in
17:14 76.1 °F 61.7 °F 29.73 in WNW 5.0 mph 11.0 mph 61% 0.00 in
17:19 75.3 °F 61.4 °F 29.74 in West 9.0 mph 18.0 mph 62% 0.00 in
17:24 74.4 °F 61.0 °F 29.74 in West 7.0 mph 14.0 mph 63% 0.00 in
17:29 73.8 °F 60.9 °F 29.74 in West 4.0 mph 17.0 mph 64% 0.00 in
17:30 73.8 °F 61.3 °F 29.74 in WSW 6.0 mph 17.0 mph 65% 0.00 in
17:34 73.5 °F 61.0 °F 29.74 in West 3.0 mph 5.0 mph 65% 0.00 in
17:35 73.5 °F 61.0 °F 29.74 in West 3.0 mph 5.0 mph 65% 0.00 in
17:40 73.4 °F 61.4 °F 29.75 in WNW 5.0 mph 11.0 mph 66% 0.00 in
17:45 73.3 °F 61.3 °F 29.75 in WNW 8.0 mph 8.0 mph 66% 0.00 in
17:50 73.5 °F 61.5 °F 29.75 in NW 10.0 mph 10.0 mph 66% 0.00 in
17:55 73.7 °F 62.1 °F 29.76 in WNW 5.0 mph 7.0 mph 67% 0.00 in
17:56 73.7 °F 62.9 °F 29.76 in WNW 6.0 mph 7.0 mph 69% 0.00 in
18:01 73.4 °F 62.6 °F 29.76 in WNW 8.0 mph 9.0 mph 69% 0.00 in
18:06 72.8 °F 62.5 °F 29.76 in WNW 5.0 mph 9.0 mph 70% 0.00 in
18:11 72.2 °F 62.3 °F 29.76 in West 4.0 mph 12.0 mph 71% 0.00 in
18:16 72.0 °F 62.5 °F 29.76 in WNW 5.0 mph 8.0 mph 72% 0.00 in
18:21 71.9 °F 62.8 °F 29.77 in West 4.0 mph 6.0 mph 73% 0.00 in
18:26 72.0 °F 62.5 °F 29.77 in West 3.0 mph 6.0 mph 72% 0.00 in
18:27 72.0 °F 62.9 °F 29.77 in West 3.0 mph 5.0 mph 73% 0.00 in
18:31 71.8 °F 62.7 °F 29.77 in WNW 4.0 mph 6.0 mph 73% 0.00 in
18:32 71.8 °F 63.1 °F 29.77 in WNW 2.0 mph 4.0 mph 74% 0.00 in
18:34 71.7 °F 63.0 °F 29.77 in WNW 1.0 mph 4.0 mph 74% 0.00 in
18:36 71.6 °F 62.9 °F 29.77 in West 2.0 mph 4.0 mph 74% 0.00 in
18:41 71.6 °F 62.9 °F 29.77 in West 2.0 mph 5.0 mph 74% 0.00 in
18:46 71.5 °F 62.8 °F 29.78 in WNW 1.0 mph 5.0 mph 74% 0.00 in
18:51 71.4 °F 62.7 °F 29.78 in West 6.0 mph 6.0 mph 74% 0.00 in
18:53 71.4 °F 62.7 °F 29.78 in West 3.0 mph 6.0 mph 74% 0.00 in
18:56 71.3 °F 63.0 °F 29.78 in West 2.0 mph 5.0 mph 75% 0.00 in
18:58 71.2 °F 62.9 °F 29.78 in WNW 3.0 mph 3.0 mph 75% 0.00 in
19:02 71.1 °F 62.8 °F 29.78 in WNW 4.0 mph 6.0 mph 75% 0.00 in
19:07 71.1 °F 63.2 °F 29.78 in WNW 7.0 mph 8.0 mph 76% 0.00 in
19:12 71.0 °F 63.1 °F 29.78 in NW 5.0 mph 7.0 mph 76% 0.00 in
19:17 70.9 °F 63.0 °F 29.78 in WNW 5.0 mph 6.0 mph 76% 0.00 in
19:22 70.9 °F 63.0 °F 29.78 in WNW 5.0 mph 7.0 mph 76% 0.00 in
19:23 70.9 °F 63.0 °F 29.78 in WNW 5.0 mph 7.0 mph 76% 0.00 in
19:28 70.9 °F 62.6 °F 29.78 in WNW 6.0 mph 8.0 mph 75% 0.00 in
19:33 71.0 °F 62.7 °F 29.78 in WNW 5.0 mph 8.0 mph 75% 0.00 in
19:36 71.5 °F 63.2 °F 29.79 in West 3.0 mph 7.0 mph 75% 0.00 in
19:38 72.0 °F 64.0 °F 29.78 in WNW 5.0 mph 6.0 mph 76% 0.00 in
19:43 72.0 °F 62.9 °F 29.79 in NW 8.0 mph 12.0 mph 73% 0.00 in
19:48 71.8 °F 62.3 °F 29.79 in WNW 10.0 mph 12.0 mph 72% 0.00 in
19:53 71.3 °F 62.6 °F 29.79 in WNW 3.0 mph 9.0 mph 74% 0.00 in
19:54 71.3 °F 62.6 °F 29.79 in NW 10.0 mph 10.0 mph 74% 0.00 in
19:58 71.0 °F 62.7 °F 29.79 in WNW 4.0 mph 8.0 mph 75% 0.00 in
20:03 70.6 °F 61.9 °F 29.79 in West 4.0 mph 10.0 mph 74% 0.00 in
20:08 70.1 °F 61.4 °F 29.79 in WNW 5.0 mph 7.0 mph 74% 0.00 in
20:13 69.9 °F 61.6 °F 29.79 in WNW 5.0 mph 6.0 mph 75% 0.00 in
20:18 69.7 °F 61.4 °F 29.79 in NW 9.0 mph 9.0 mph 75% 0.00 in
20:23 69.5 °F 61.6 °F 29.79 in WNW 6.0 mph 9.0 mph 76% 0.00 in
20:28 69.2 °F 61.7 °F 29.80 in West 8.0 mph 8.0 mph 77% 0.00 in
20:29 69.2 °F 61.7 °F 29.80 in West 8.0 mph 8.0 mph 77% 0.00 in
20:30 69.2 °F 61.3 °F 29.80 in WNW 5.0 mph 8.0 mph 76% 0.00 in
20:34 68.9 °F 61.0 °F 29.80 in NW 7.0 mph 8.0 mph 76% 0.00 in
20:37 68.5 °F 61.0 °F 29.80 in WNW 5.0 mph 7.0 mph 77% 0.00 in
20:39 68.3 °F 60.5 °F 29.80 in WNW 8.0 mph 13.0 mph 76% 0.00 in
20:44 68.0 °F 60.2 °F 29.81 in NW 11.0 mph 11.0 mph 76% 0.00 in
20:49 67.7 °F 60.2 °F 29.81 in WNW 4.0 mph 10.0 mph 77% 0.00 in
20:54 67.4 °F 60.0 °F 29.81 in WNW 6.0 mph 7.0 mph 77% 0.00 in
20:55 67.4 °F 60.0 °F 29.81 in WNW 4.0 mph 7.0 mph 77% 0.00 in
20:56 67.3 °F 59.8 °F 29.81 in WNW 4.0 mph 7.0 mph 77% 0.00 in
21:00 66.9 °F 60.2 °F 29.81 in WNW 3.0 mph 8.0 mph 79% 0.00 in
21:06 66.6 °F 59.9 °F 29.81 in West 3.0 mph 8.0 mph 79% 0.00 in
21:11 66.3 °F 60.0 °F 29.81 in WNW 4.0 mph 9.0 mph 80% 0.00 in
21:16 66.0 °F 60.0 °F 29.81 in WNW 3.0 mph 5.0 mph 81% 0.00 in
21:21 65.6 °F 59.3 °F 29.81 in WNW 7.0 mph 11.0 mph 80% 0.00 in
21:26 65.4 °F 59.1 °F 29.81 in NW 6.0 mph 10.0 mph 80% 0.00 in
21:27 65.5 °F 59.2 °F 29.81 in NW 7.0 mph 10.0 mph 80% 0.00 in
21:31 65.2 °F 58.9 °F 29.82 in WNW 5.0 mph 7.0 mph 80% 0.00 in
21:32 65.2 °F 58.9 °F 29.82 in WNW 5.0 mph 7.0 mph 80% 0.00 in
21:33 65.2 °F 58.9 °F 29.82 in NW 3.0 mph 7.0 mph 80% 0.00 in
21:37 65.0 °F 58.7 °F 29.82 in WNW 7.0 mph 8.0 mph 80% 0.00 in
21:38 65.0 °F 58.7 °F 29.82 in WNW 5.0 mph 8.0 mph 80% 0.00 in
21:43 64.7 °F 58.7 °F 29.82 in WNW 3.0 mph 7.0 mph 81% 0.00 in
21:48 64.4 °F 58.5 °F 29.82 in WNW 2.0 mph 5.0 mph 81% 0.00 in
21:53 64.0 °F 58.4 °F 29.83 in WNW 2.0 mph 4.0 mph 82% 0.00 in
21:54 64.0 °F 58.7 °F 29.83 in NW 3.0 mph 4.0 mph 83% 0.00 in
21:56 63.9 °F 58.6 °F 29.83 in WNW 2.0 mph 5.0 mph 83% 0.00 in
21:59 63.8 °F 58.5 °F 29.83 in NW 2.0 mph 5.0 mph 83% 0.00 in
22:02 63.6 °F 58.3 °F 29.83 in NW 2.0 mph 4.0 mph 83% 0.00 in
22:07 63.3 °F 58.4 °F 29.83 in NW 2.0 mph 3.0 mph 84% 0.00 in
22:12 63.1 °F 58.5 °F 29.83 in NW 4.0 mph 4.0 mph 85% 0.00 in
22:17 62.9 °F 58.3 °F 29.83 in NW 3.0 mph 4.0 mph 85% 0.00 in
22:22 62.7 °F 58.1 °F 29.83 in NW 4.0 mph 5.0 mph 85% 0.00 in
22:27 62.5 °F 57.9 °F 29.83 in NW 4.0 mph 4.0 mph 85% 0.00 in
22:33 62.4 °F 57.8 °F 29.83 in NW 2.0 mph 4.0 mph 85% 0.00 in
22:37 62.2 °F 57.6 °F 29.83 in NNW 4.0 mph 4.0 mph 85% 0.00 in
22:42 61.9 °F 57.7 °F 29.84 in NW 2.0 mph 3.0 mph 86% 0.00 in
22:47 61.8 °F 57.6 °F 29.84 in NW 3.0 mph 6.0 mph 86% 0.00 in
22:52 61.8 °F 57.6 °F 29.84 in NNW 4.0 mph 6.0 mph 86% 0.00 in
22:57 61.7 °F 57.5 °F 29.84 in WNW 2.0 mph 5.0 mph 86% 0.00 in
22:58 61.7 °F 57.5 °F 29.85 in NW 2.0 mph 5.0 mph 86% 0.00 in
23:02 61.6 °F 57.4 °F 29.85 in NW 1.0 mph 3.0 mph 86% 0.00 in
23:07 61.4 °F 57.5 °F 29.85 in NNW 2.0 mph 2.0 mph 87% 0.00 in
23:12 61.3 °F 57.4 °F 29.85 in NW 2.0 mph 2.0 mph 87% 0.00 in
23:17 61.0 °F 57.4 °F 29.85 in NNW 2.0 mph 5.0 mph 88% 0.00 in
23:22 60.8 °F 57.2 °F 29.86 in NNW 3.0 mph 4.0 mph 88% 0.00 in
23:27 60.7 °F 57.4 °F 29.86 in NW 3.0 mph 6.0 mph 89% 0.00 in
23:28 60.7 °F 57.4 °F 29.86 in NW 3.0 mph 6.0 mph 89% 0.00 in
23:33 60.6 °F 57.3 °F 29.86 in NNW 5.0 mph 7.0 mph 89% 0.00 in
23:34 60.6 °F 57.3 °F 29.86 in NNW 4.0 mph 6.0 mph 89% 0.00 in
23:36 60.6 °F 57.3 °F 29.86 in NW 3.0 mph 5.0 mph 89% 0.00 in
23:38 60.5 °F 57.2 °F 29.86 in NW 2.0 mph 5.0 mph 89% 0.00 in
23:44 60.3 °F 57.4 °F 29.86 in NW 2.0 mph 4.0 mph 90% 0.00 in
23:49 60.1 °F 57.2 °F 29.86 in NW 2.0 mph 5.0 mph 90% 0.00 in
23:54 60.0 °F 57.1 °F 29.86 in NW 2.0 mph 3.0 mph 90% 0.00 in
23:55 60.0 °F 57.1 °F 29.86 in NW 2.0 mph 3.0 mph 90% 0.00 in
23:59 59.9 °F 57.0 °F 29.87 in NW 1.0 mph 3.0 mph 90% 0.00 in
Compliments of Weather Underground